sensor_id;sensor_type;location;lat;lon;timestamp;pressure;altitude;pressure_sealevel;temperature;humidity
44825;BME280;30542;47.928;2.138;2023-06-01T00:01:56;100469.69;;;24.71;36.77
44825;BME280;30542;47.928;2.138;2023-06-01T00:06:56;100465.69;;;24.68;36.79
44825;BME280;30542;47.928;2.138;2023-06-01T00:11:56;100460.16;;;24.60;36.94
44825;BME280;30542;47.928;2.138;2023-06-01T00:16:57;100468.66;;;24.67;36.86
44825;BME280;30542;47.928;2.138;2023-06-01T00:21:57;100469.47;;;24.67;37.18
44825;BME280;30542;47.928;2.138;2023-06-01T00:26:57;100472.47;;;24.66;36.87
44825;BME280;30542;47.928;2.138;2023-06-01T00:31:58;100470.88;;;24.65;37.27
44825;BME280;30542;47.928;2.138;2023-06-01T00:36:58;100467.38;;;24.64;37.34
44825;BME280;30542;47.928;2.138;2023-06-01T00:41:58;100470.06;;;24.64;37.29
44825;BME280;30542;47.928;2.138;2023-06-01T00:46:59;100460.66;;;24.62;37.35
44825;BME280;30542;47.928;2.138;2023-06-01T00:52:00;100459.06;;;24.61;37.39
44825;BME280;30542;47.928;2.138;2023-06-01T00:57:01;100462.56;;;24.61;37.49
44825;BME280;30542;47.928;2.138;2023-06-01T01:02:02;100452.09;;;24.60;37.59
44825;BME280;30542;47.928;2.138;2023-06-01T01:07:15;100463.66;;;24.60;37.66
44825;BME280;30542;47.928;2.138;2023-06-01T01:12:31;100461.75;;;24.61;37.69
44825;BME280;30542;47.928;2.138;2023-06-01T01:17:37;100460.16;;;24.60;37.62
44825;BME280;30542;47.928;2.138;2023-06-01T01:23:02;100449.41;;;24.60;37.70
44825;BME280;30542;47.928;2.138;2023-06-01T01:33:26;100445.69;;;24.55;37.69
44825;BME280;30542;47.928;2.138;2023-06-01T01:38:27;100440.78;;;24.58;38.07
44825;BME280;30542;47.928;2.138;2023-06-01T01:43:27;100446.19;;;24.58;37.78
44825;BME280;30542;47.928;2.138;2023-06-01T01:48:37;100442.69;;;24.57;37.88
44825;BME280;30542;47.928;2.138;2023-06-01T01:53:41;100441.66;;;24.53;37.87
44825;BME280;30542;47.928;2.138;2023-06-01T01:58:45;100448.38;;;24.55;38.05
44825;BME280;30542;47.928;2.138;2023-06-01T02:03:57;100451.34;;;24.54;38.00
44825;BME280;30542;47.928;2.138;2023-06-01T02:08:57;100449.44;;;24.54;37.88
44825;BME280;30542;47.928;2.138;2023-06-01T02:13:58;100462.13;;;24.54;38.06
44825;BME280;30542;47.928;2.138;2023-06-01T02:18:58;100457.81;;;24.53;38.07
44825;BME280;30542;47.928;2.138;2023-06-01T02:23:58;100450.06;;;24.51;38.20
44825;BME280;30542;47.928;2.138;2023-06-01T02:29:05;100446.84;;;24.49;38.48
44825;BME280;30542;47.928;2.138;2023-06-01T02:34:06;100440.16;;;24.47;38.22
44825;BME280;30542;47.928;2.138;2023-06-01T02:39:06;100443.03;;;24.50;38.16
44825;BME280;30542;47.928;2.138;2023-06-01T02:44:07;100447.34;;;24.51;38.19
44825;BME280;30542;47.928;2.138;2023-06-01T02:49:07;100444.66;;;24.51;38.17
44825;BME280;30542;47.928;2.138;2023-06-01T02:54:07;100445.25;;;24.48;38.33
44825;BME280;30542;47.928;2.138;2023-06-01T02:59:08;100439.41;;;24.41;38.37
44825;BME280;30542;47.928;2.138;2023-06-01T03:04:08;100438.84;;;24.44;38.38
44825;BME280;30542;47.928;2.138;2023-06-01T03:09:11;100440.72;;;24.44;38.44
44825;BME280;30542;47.928;2.138;2023-06-01T03:14:13;100439.94;;;24.43;38.34
44825;BME280;30542;47.928;2.138;2023-06-01T03:19:13;100444.78;;;24.41;38.35
44825;BME280;30542;47.928;2.138;2023-06-01T03:24:13;100445.88;;;24.40;38.43
44825;BME280;30542;47.928;2.138;2023-06-01T03:29:14;100444.00;;;24.41;38.46
44825;BME280;30542;47.928;2.138;2023-06-01T03:34:14;100437.81;;;24.40;38.49
44825;BME280;30542;47.928;2.138;2023-06-01T03:39:16;100439.97;;;24.38;38.38
44825;BME280;30542;47.928;2.138;2023-06-01T03:44:16;100439.44;;;24.36;38.41
44825;BME280;30542;47.928;2.138;2023-06-01T03:49:17;100428.75;;;24.31;38.55
44825;BME280;30542;47.928;2.138;2023-06-01T03:54:17;100444.84;;;24.36;38.50
44825;BME280;30542;47.928;2.138;2023-06-01T03:59:18;100460.19;;;24.36;38.54
44825;BME280;30542;47.928;2.138;2023-06-01T04:04:22;100457.78;;;24.34;38.62
44825;BME280;30542;47.928;2.138;2023-06-01T04:09:24;100469.63;;;24.33;38.71
44825;BME280;30542;47.928;2.138;2023-06-01T04:14:24;100475.31;;;24.31;38.54
44825;BME280;30542;47.928;2.138;2023-06-01T04:19:25;100471.03;;;24.30;38.57
44825;BME280;30542;47.928;2.138;2023-06-01T04:24:25;100467.50;;;24.30;38.58
44825;BME280;30542;47.928;2.138;2023-06-01T04:29:25;100474.00;;;24.29;38.62
44825;BME280;30542;47.928;2.138;2023-06-01T04:34:26;100485.84;;;24.28;38.62
44825;BME280;30542;47.928;2.138;2023-06-01T04:39:26;100480.47;;;24.28;38.71
44825;BME280;30542;47.928;2.138;2023-06-01T04:44:28;100485.84;;;24.28;38.84
44825;BME280;30542;47.928;2.138;2023-06-01T04:49:29;100482.38;;;24.27;38.61
44825;BME280;30542;47.928;2.138;2023-06-01T04:54:30;100486.97;;;24.27;38.54
44825;BME280;30542;47.928;2.138;2023-06-01T04:59:30;100489.69;;;24.22;38.52
44825;BME280;30542;47.928;2.138;2023-06-01T05:04:30;100492.34;;;24.27;38.52
44825;BME280;30542;47.928;2.138;2023-06-01T05:09:31;100492.03;;;24.28;38.48
44825;BME280;30542;47.928;2.138;2023-06-01T05:14:31;100502.31;;;24.26;38.63
44825;BME280;30542;47.928;2.138;2023-06-01T05:19:32;100500.47;;;24.22;38.65
44825;BME280;30542;47.928;2.138;2023-06-01T05:24:32;100505.84;;;24.22;38.64
44825;BME280;30542;47.928;2.138;2023-06-01T05:29:32;100511.28;;;24.17;38.47
44825;BME280;30542;47.928;2.138;2023-06-01T05:34:32;100508.72;;;24.06;38.26
44825;BME280;30542;47.928;2.138;2023-06-01T05:39:33;100507.78;;;23.92;38.16
44825;BME280;30542;47.928;2.138;2023-06-01T05:44:33;100507.13;;;23.81;38.41
44825;BME280;30542;47.928;2.138;2023-06-01T05:49:35;100517.34;;;23.79;38.50
44825;BME280;30542;47.928;2.138;2023-06-01T05:54:35;100515.19;;;23.81;38.52
44825;BME280;30542;47.928;2.138;2023-06-01T05:59:36;100514.94;;;23.78;38.40
44825;BME280;30542;47.928;2.138;2023-06-01T06:04:36;100507.97;;;23.77;38.53
44825;BME280;30542;47.928;2.138;2023-06-01T06:09:36;100508.22;;;23.75;38.39
44825;BME280;30542;47.928;2.138;2023-06-01T06:14:37;100514.72;;;23.74;38.44
44825;BME280;30542;47.928;2.138;2023-06-01T06:19:37;100511.53;;;23.72;38.29
44825;BME280;30542;47.928;2.138;2023-06-01T06:24:37;100519.34;;;23.69;38.40
44825;BME280;30542;47.928;2.138;2023-06-01T06:29:38;100514.78;;;23.64;38.50
44825;BME280;30542;47.928;2.138;2023-06-01T06:34:38;100534.97;;;23.62;38.80
44825;BME280;30542;47.928;2.138;2023-06-01T06:39:39;100536.56;;;23.63;38.54
44825;BME280;30542;47.928;2.138;2023-06-01T06:44:39;100536.06;;;23.61;38.42
44825;BME280;30542;47.928;2.138;2023-06-01T06:49:39;100532.34;;;23.56;38.42
44825;BME280;30542;47.928;2.138;2023-06-01T06:54:40;100536.63;;;23.57;38.36
44825;BME280;30542;47.928;2.138;2023-06-01T06:59:40;100540.34;;;23.62;38.48
44825;BME280;30542;47.928;2.138;2023-06-01T07:04:41;100536.88;;;23.61;38.49
44825;BME280;30542;47.928;2.138;2023-06-01T07:09:41;100539.25;;;23.63;38.70
44825;BME280;30542;47.928;2.138;2023-06-01T07:14:41;100553.78;;;23.67;38.73
44825;BME280;30542;47.928;2.138;2023-06-01T07:19:42;100550.53;;;23.65;38.85
44825;BME280;30542;47.928;2.138;2023-06-01T07:24:42;100559.16;;;23.67;38.60
44825;BME280;30542;47.928;2.138;2023-06-01T07:29:43;100549.50;;;23.66;38.37
44825;BME280;30542;47.928;2.138;2023-06-01T07:34:44;100552.41;;;23.69;38.77
44825;BME280;30542;47.928;2.138;2023-06-01T07:39:44;100561.78;;;23.72;38.39
44825;BME280;30542;47.928;2.138;2023-06-01T07:44:45;100572.00;;;23.75;38.30
44825;BME280;30542;47.928;2.138;2023-06-01T07:49:45;100567.38;;;23.80;37.90
44825;BME280;30542;47.928;2.138;2023-06-01T07:54:46;100568.19;;;23.81;37.73
44825;BME280;30542;47.928;2.138;2023-06-01T07:59:47;100571.66;;;23.81;37.78
44825;BME280;30542;47.928;2.138;2023-06-01T08:04:48;100570.28;;;23.84;37.36
44825;BME280;30542;47.928;2.138;2023-06-01T08:09:49;100572.41;;;23.87;37.76
44825;BME280;30542;47.928;2.138;2023-06-01T08:14:50;100561.91;;;23.91;37.74
44825;BME280;30542;47.928;2.138;2023-06-01T08:19:51;100563.44;;;23.97;37.93
44825;BME280;30542;47.928;2.138;2023-06-01T08:24:52;100566.09;;;24.02;38.48
44825;BME280;30542;47.928;2.138;2023-06-01T08:29:53;100570.09;;;24.04;38.65
44825;BME280;30542;47.928;2.138;2023-06-01T08:34:53;100543.34;;;23.89;39.02
44825;BME280;30542;47.928;2.138;2023-06-01T08:39:53;100566.91;;;24.02;39.16
44825;BME280;30542;47.928;2.138;2023-06-01T08:44:54;100562.59;;;24.01;39.36
44825;BME280;30542;47.928;2.138;2023-06-01T08:50:00;100557.97;;;24.07;39.41
44825;BME280;30542;47.928;2.138;2023-06-01T08:55:01;100557.16;;;24.06;39.53
44825;BME280;30542;47.928;2.138;2023-06-01T09:00:02;100545.06;;;24.04;39.49
44825;BME280;30542;47.928;2.138;2023-06-01T09:05:03;100549.75;;;24.17;39.52
44825;BME280;30542;47.928;2.138;2023-06-01T09:10:05;100538.72;;;24.19;39.56
44825;BME280;30542;47.928;2.138;2023-06-01T09:15:16;100556.41;;;24.25;39.65
44825;BME280;30542;47.928;2.138;2023-06-01T09:20:25;100548.91;;;24.22;39.65
44825;BME280;30542;47.928;2.138;2023-06-01T09:25:31;100553.94;;;24.28;39.57
44825;BME280;30542;47.928;2.138;2023-06-01T09:30:42;100548.00;;;24.31;39.16
44825;BME280;30542;47.928;2.138;2023-06-01T09:35:45;100546.13;;;24.32;39.20
44825;BME280;30542;47.928;2.138;2023-06-01T09:40:58;100548.81;;;24.32;39.12
44825;BME280;30542;47.928;2.138;2023-06-01T09:46:09;100549.84;;;24.36;39.54
44825;BME280;30542;47.928;2.138;2023-06-01T09:51:23;100538.22;;;24.41;39.51
44825;BME280;30542;47.928;2.138;2023-06-01T09:56:42;100531.28;;;24.35;39.42
44825;BME280;30542;47.928;2.138;2023-06-01T10:01:43;100534.25;;;24.33;39.47
44825;BME280;30542;47.928;2.138;2023-06-01T10:06:49;100532.34;;;24.39;39.45
44825;BME280;30542;47.928;2.138;2023-06-01T10:11:53;100534.16;;;24.43;39.61
44825;BME280;30542;47.928;2.138;2023-06-01T10:16:53;100530.00;;;24.51;39.22
44825;BME280;30542;47.928;2.138;2023-06-01T10:21:56;100524.63;;;24.51;38.73
44825;BME280;30542;47.928;2.138;2023-06-01T10:27:19;100519.47;;;24.54;38.81
44825;BME280;30542;47.928;2.138;2023-06-01T10:32:43;100519.34;;;24.65;38.88
44825;BME280;30542;47.928;2.138;2023-06-01T10:43:08;100513.00;;;24.74;38.59
44825;BME280;30542;47.928;2.138;2023-06-01T10:48:53;100513.00;;;24.74;38.52
44825;BME280;30542;47.928;2.138;2023-06-01T10:53:54;100504.66;;;24.76;38.28
44825;BME280;30542;47.928;2.138;2023-06-01T11:04:07;100502.75;;;24.76;38.29
44825;BME280;30542;47.928;2.138;2023-06-01T11:09:09;100489.06;;;24.73;38.35
44825;BME280;30542;47.928;2.138;2023-06-01T11:14:13;100493.06;;;24.75;38.37
44825;BME280;30542;47.928;2.138;2023-06-01T11:19:18;100487.38;;;24.77;38.57
44825;BME280;30542;47.928;2.138;2023-06-01T11:24:20;100495.47;;;24.77;38.73
44825;BME280;30542;47.928;2.138;2023-06-01T11:29:24;100485.19;;;24.79;38.54
44825;BME280;30542;47.928;2.138;2023-06-01T11:34:39;100485.09;;;24.84;38.03
44825;BME280;30542;47.928;2.138;2023-06-01T11:39:42;100475.34;;;24.88;37.76
44825;BME280;30542;47.928;2.138;2023-06-01T11:44:44;100474.63;;;25.01;37.31
44825;BME280;30542;47.928;2.138;2023-06-01T11:49:46;100477.22;;;25.25;36.97
44825;BME280;30542;47.928;2.138;2023-06-01T11:54:50;100483.16;;;25.41;36.78
44825;BME280;30542;47.928;2.138;2023-06-01T11:59:53;100469.50;;;25.51;36.13
44825;BME280;30542;47.928;2.138;2023-06-01T12:09:56;100456.63;;;25.76;34.87
44825;BME280;30542;47.928;2.138;2023-06-01T12:14:56;100465.50;;;25.63;34.82
44825;BME280;30542;47.928;2.138;2023-06-01T12:19:57;100453.91;;;25.48;35.13
44825;BME280;30542;47.928;2.138;2023-06-01T12:25:04;100457.06;;;25.37;35.52
44825;BME280;30542;47.928;2.138;2023-06-01T12:30:19;100435.16;;;25.24;35.61
44825;BME280;30542;47.928;2.138;2023-06-01T12:35:20;100444.94;;;25.20;35.17
44825;BME280;30542;47.928;2.138;2023-06-01T12:40:23;100449.97;;;25.27;34.86
44825;BME280;30542;47.928;2.138;2023-06-01T12:45:23;100440.47;;;25.29;34.43
44825;BME280;30542;47.928;2.138;2023-06-01T12:50:24;100434.50;;;25.33;34.21
44825;BME280;30542;47.928;2.138;2023-06-01T12:55:24;100427.41;;;25.37;34.33
44825;BME280;30542;47.928;2.138;2023-06-01T13:00:25;100427.13;;;25.38;34.44
44825;BME280;30542;47.928;2.138;2023-06-01T13:05:25;100418.63;;;25.45;34.85
44825;BME280;30542;47.928;2.138;2023-06-01T13:10:26;100420.53;;;25.44;34.73
44825;BME280;30542;47.928;2.138;2023-06-01T13:15:26;100417.03;;;25.44;34.44
44825;BME280;30542;47.928;2.138;2023-06-01T13:20:27;100413.03;;;25.41;33.77
44825;BME280;30542;47.928;2.138;2023-06-01T13:25:27;100413.03;;;25.41;33.46
44825;BME280;30542;47.928;2.138;2023-06-01T13:30:28;100408.63;;;25.45;33.16
44825;BME280;30542;47.928;2.138;2023-06-01T13:35:29;100401.56;;;25.49;33.19
44825;BME280;30542;47.928;2.138;2023-06-01T13:40:29;100402.06;;;25.51;33.18
44825;BME280;30542;47.928;2.138;2023-06-01T13:45:29;100400.16;;;25.52;33.02
44825;BME280;30542;47.928;2.138;2023-06-01T13:50:30;100395.56;;;25.52;33.17
44825;BME280;30542;47.928;2.138;2023-06-01T13:55:31;100398.28;;;25.52;33.33
44825;BME280;30542;47.928;2.138;2023-06-01T14:00:32;100392.06;;;25.52;33.63
44825;BME280;30542;47.928;2.138;2023-06-01T14:05:33;100384.25;;;25.50;33.56
44825;BME280;30542;47.928;2.138;2023-06-01T14:10:33;100373.47;;;25.50;33.88
44825;BME280;30542;47.928;2.138;2023-06-01T14:15:34;100368.91;;;25.51;33.96
44825;BME280;30542;47.928;2.138;2023-06-01T14:20:35;100370.19;;;25.53;33.97
44825;BME280;30542;47.928;2.138;2023-06-01T14:25:37;100356.13;;;25.57;33.70
44825;BME280;30542;47.928;2.138;2023-06-01T14:30:38;100357.69;;;25.58;33.80
44825;BME280;30542;47.928;2.138;2023-06-01T14:35:39;100350.72;;;25.57;33.93
44825;BME280;30542;47.928;2.138;2023-06-01T14:40:39;100351.81;;;25.56;34.39
44825;BME280;30542;47.928;2.138;2023-06-01T14:45:40;100339.25;;;25.51;34.31
44825;BME280;30542;47.928;2.138;2023-06-01T14:50:40;100344.53;;;25.56;34.25
44825;BME280;30542;47.928;2.138;2023-06-01T14:55:41;100337.72;;;25.59;34.44
44825;BME280;30542;47.928;2.138;2023-06-01T15:00:41;100336.13;;;25.58;34.12
44825;BME280;30542;47.928;2.138;2023-06-01T15:05:41;100330.13;;;25.61;34.18
44825;BME280;30542;47.928;2.138;2023-06-01T15:10:44;100325.53;;;25.61;34.42
44825;BME280;30542;47.928;2.138;2023-06-01T15:15:44;100325.75;;;25.65;34.42
44825;BME280;30542;47.928;2.138;2023-06-01T15:20:45;100325.13;;;25.68;33.99
44825;BME280;30542;47.928;2.138;2023-06-01T15:25:45;100325.22;;;25.63;34.08
44825;BME280;30542;47.928;2.138;2023-06-01T15:30:46;100326.72;;;25.69;33.89
44825;BME280;30542;47.928;2.138;2023-06-01T15:35:46;100323.72;;;25.70;33.88
44825;BME280;30542;47.928;2.138;2023-06-01T15:40:46;100318.84;;;25.72;33.80
44825;BME280;30542;47.928;2.138;2023-06-01T15:45:47;100318.03;;;25.72;33.34
44825;BME280;30542;47.928;2.138;2023-06-01T15:50:47;100322.00;;;25.74;33.04
44825;BME280;30542;47.928;2.138;2023-06-01T15:55:48;100312.56;;;25.77;32.60
44825;BME280;30542;47.928;2.138;2023-06-01T16:00:48;100303.34;;;25.78;32.42
44825;BME280;30542;47.928;2.138;2023-06-01T16:05:49;100300.75;;;25.73;32.19
44825;BME280;30542;47.928;2.138;2023-06-01T16:10:49;100303.06;;;25.80;32.07
44825;BME280;30542;47.928;2.138;2023-06-01T16:15:50;100292.44;;;25.83;31.83
44825;BME280;30542;47.928;2.138;2023-06-01T16:20:50;100292.97;;;25.85;31.79
44825;BME280;30542;47.928;2.138;2023-06-01T16:25:50;100286.13;;;25.88;32.13
44825;BME280;30542;47.928;2.138;2023-06-01T16:30:51;100286.13;;;25.88;31.97
44825;BME280;30542;47.928;2.138;2023-06-01T16:35:51;100279.66;;;25.89;32.04
44825;BME280;30542;47.928;2.138;2023-06-01T16:40:51;100280.44;;;25.89;32.68
44825;BME280;30542;47.928;2.138;2023-06-01T16:45:52;100281.25;;;25.90;32.68
44825;BME280;30542;47.928;2.138;2023-06-01T16:50:52;100280.94;;;25.91;32.92
44825;BME280;30542;47.928;2.138;2023-06-01T16:55:52;100289.03;;;25.91;32.98
44825;BME280;30542;47.928;2.138;2023-06-01T17:00:53;100285.25;;;25.92;32.82
44825;BME280;30542;47.928;2.138;2023-06-01T17:05:53;100278.41;;;25.95;32.80
44825;BME280;30542;47.928;2.138;2023-06-01T17:10:53;100265.38;;;25.88;32.63
44825;BME280;30542;47.928;2.138;2023-06-01T17:15:53;100277.63;;;25.94;32.61
44825;BME280;30542;47.928;2.138;2023-06-01T17:20:54;100271.13;;;25.95;32.97
44825;BME280;30542;47.928;2.138;2023-06-01T17:25:54;100276.72;;;25.99;33.21
44825;BME280;30542;47.928;2.138;2023-06-01T17:30:55;100270.19;;;26.00;33.18
44825;BME280;30542;47.928;2.138;2023-06-01T17:35:55;100280.72;;;26.01;33.41
44825;BME280;30542;47.928;2.138;2023-06-01T17:40:56;100273.72;;;26.00;33.56
44825;BME280;30542;47.928;2.138;2023-06-01T17:45:56;100276.44;;;26.00;33.68
44825;BME280;30542;47.928;2.138;2023-06-01T17:50:57;100267.03;;;25.98;34.17
44825;BME280;30542;47.928;2.138;2023-06-01T17:55:57;100281.50;;;26.02;34.05
44825;BME280;30542;47.928;2.138;2023-06-01T18:01:00;100275.00;;;26.03;33.97
44825;BME280;30542;47.928;2.138;2023-06-01T18:06:00;100271.31;;;25.99;33.99
44825;BME280;30542;47.928;2.138;2023-06-01T18:11:00;100289.78;;;26.06;34.31
44825;BME280;30542;47.928;2.138;2023-06-01T18:16:06;100279.91;;;26.01;34.38
44825;BME280;30542;47.928;2.138;2023-06-01T18:21:06;100290.91;;;26.05;34.48
44825;BME280;30542;47.928;2.138;2023-06-01T18:26:07;100295.78;;;26.02;34.59
44825;BME280;30542;47.928;2.138;2023-06-01T18:31:10;100292.63;;;26.00;35.02
44825;BME280;30542;47.928;2.138;2023-06-01T18:36:11;100304.50;;;25.99;35.24
44825;BME280;30542;47.928;2.138;2023-06-01T18:41:11;100298.31;;;25.99;35.35
44825;BME280;30542;47.928;2.138;2023-06-01T18:46:12;100298.63;;;25.97;35.70
44825;BME280;30542;47.928;2.138;2023-06-01T18:51:13;100294.81;;;25.98;35.88
44825;BME280;30542;47.928;2.138;2023-06-01T18:56:13;100310.22;;;25.98;35.92
44825;BME280;30542;47.928;2.138;2023-06-01T19:01:14;100312.41;;;25.96;35.87
44825;BME280;30542;47.928;2.138;2023-06-01T19:06:14;100300.53;;;25.83;36.25
44825;BME280;30542;47.928;2.138;2023-06-01T19:11:15;100308.91;;;25.95;36.40
44825;BME280;30542;47.928;2.138;2023-06-01T19:16:20;100313.50;;;25.95;36.24
44825;BME280;30542;47.928;2.138;2023-06-01T19:21:27;100312.72;;;25.94;36.80
44825;BME280;30542;47.928;2.138;2023-06-01T19:26:31;100317.63;;;25.92;36.93
44825;BME280;30542;47.928;2.138;2023-06-01T19:31:51;100315.34;;;25.86;36.88
44825;BME280;30542;47.928;2.138;2023-06-01T19:36:52;100327.13;;;25.90;37.17
44825;BME280;30542;47.928;2.138;2023-06-01T19:52:41;100349.31;;;25.87;37.36
44825;BME280;30542;47.928;2.138;2023-06-01T19:57:42;100362.00;;;25.86;37.49
44825;BME280;30542;47.928;2.138;2023-06-01T20:02:50;100370.91;;;25.87;37.96
44825;BME280;30542;47.928;2.138;2023-06-01T20:07:56;100374.69;;;25.86;37.82
44825;BME280;30542;47.928;2.138;2023-06-01T20:12:59;100372.00;;;25.86;37.93
44825;BME280;30542;47.928;2.138;2023-06-01T20:18:01;100378.50;;;25.85;37.91
44825;BME280;30542;47.928;2.138;2023-06-01T20:23:10;100381.00;;;25.81;38.38
44825;BME280;30542;47.928;2.138;2023-06-01T20:28:12;100394.00;;;25.79;38.71
44825;BME280;30542;47.928;2.138;2023-06-01T20:33:22;100391.59;;;25.77;38.88
44825;BME280;30542;47.928;2.138;2023-06-01T20:38:25;100397.28;;;25.76;39.23
44825;BME280;30542;47.928;2.138;2023-06-01T20:43:25;100402.16;;;25.74;38.86
44825;BME280;30542;47.928;2.138;2023-06-01T20:48:40;100413.53;;;25.71;39.10
44825;BME280;30542;47.928;2.138;2023-06-01T20:53:46;100410.66;;;25.67;39.42
44825;BME280;30542;47.928;2.138;2023-06-01T20:58:47;100415.44;;;25.70;39.40
44825;BME280;30542;47.928;2.138;2023-06-01T21:03:48;100430.25;;;25.73;39.29
44825;BME280;30542;47.928;2.138;2023-06-01T21:08:55;100430.25;;;25.73;39.26
44825;BME280;30542;47.928;2.138;2023-06-01T21:13:55;100430.25;;;25.73;39.13
44825;BME280;30542;47.928;2.138;2023-06-01T21:18:56;100426.22;;;25.70;39.21
44825;BME280;30542;47.928;2.138;2023-06-01T21:23:56;100423.84;;;25.69;39.22
44825;BME280;30542;47.928;2.138;2023-06-01T21:28:57;100439.94;;;25.74;38.98
44825;BME280;30542;47.928;2.138;2023-06-01T21:33:57;100445.31;;;25.74;39.16
44825;BME280;30542;47.928;2.138;2023-06-01T21:38:58;100447.22;;;25.73;39.11
44825;BME280;30542;47.928;2.138;2023-06-01T21:43:58;100448.03;;;25.74;39.22
44825;BME280;30542;47.928;2.138;2023-06-01T21:48:58;100453.13;;;25.75;38.99
44825;BME280;30542;47.928;2.138;2023-06-01T21:53:59;100458.31;;;25.72;39.08
44825;BME280;30542;47.928;2.138;2023-06-01T21:58:59;100456.44;;;25.72;38.83
44825;BME280;30542;47.928;2.138;2023-06-01T22:03:59;100457.22;;;25.73;38.88
44825;BME280;30542;47.928;2.138;2023-06-01T22:09:00;100451.31;;;25.71;38.85
44825;BME280;30542;47.928;2.138;2023-06-01T22:14:00;100452.13;;;25.71;38.74
44825;BME280;30542;47.928;2.138;2023-06-01T22:19:00;100433.22;;;25.58;38.81
44825;BME280;30542;47.928;2.138;2023-06-01T22:24:01;100439.81;;;25.65;38.81
44825;BME280;30542;47.928;2.138;2023-06-01T22:29:01;100458.63;;;25.70;38.71
44825;BME280;30542;47.928;2.138;2023-06-01T22:34:02;100446.03;;;25.66;38.56
44825;BME280;30542;47.928;2.138;2023-06-01T22:39:02;100451.41;;;25.66;38.54
44825;BME280;30542;47.928;2.138;2023-06-01T22:44:03;100458.22;;;25.63;38.56
44825;BME280;30542;47.928;2.138;2023-06-01T22:49:03;100460.09;;;25.63;38.43
44825;BME280;30542;47.928;2.138;2023-06-01T22:54:06;100466.22;;;25.68;38.23
44825;BME280;30542;47.928;2.138;2023-06-01T22:59:06;100460.94;;;25.77;38.09
44825;BME280;30542;47.928;2.138;2023-06-01T23:04:06;100462.63;;;25.73;38.34
44825;BME280;30542;47.928;2.138;2023-06-01T23:09:07;100460.22;;;25.71;38.20
44825;BME280;30542;47.928;2.138;2023-06-01T23:14:10;100467.00;;;25.69;38.13
44825;BME280;30542;47.928;2.138;2023-06-01T23:19:14;100469.00;;;25.63;38.29
44825;BME280;30542;47.928;2.138;2023-06-01T23:24:16;100466.38;;;25.58;38.13
44825;BME280;30542;47.928;2.138;2023-06-01T23:29:17;100479.09;;;25.58;38.02
44825;BME280;30542;47.928;2.138;2023-06-01T23:34:17;100466.28;;;25.49;37.93
44825;BME280;30542;47.928;2.138;2023-06-01T23:39:19;100474.59;;;25.53;38.01
44825;BME280;30542;47.928;2.138;2023-06-01T23:44:20;100466.00;;;25.51;37.82
44825;BME280;30542;47.928;2.138;2023-06-01T23:49:21;100457.97;;;25.46;37.60
44825;BME280;30542;47.928;2.138;2023-06-01T23:54:21;100461.19;;;25.48;37.45
44825;BME280;30542;47.928;2.138;2023-06-01T23:59:21;100461.19;;;25.48;37.62
